Time;durP1;ratioP1;P1;durP2;ratioP2;P2;SDS_P1;SDS_P2;PMS_P1;PMS_P2;Temp;Humidity;BMP_temperature;BMP_pressure;BME280_temperature;BME280_humidity;BME280_pressure;Samples;Min_cycle;Max_cycle;Signal;HPM_P1;HPM_P2
2023/07/19 00:00:41;;;;;;;8.13;4.03;;;17.60;99.90;;;;;;5135068;27;20031;-71
2023/07/19 00:03:07;;;;;;;5.82;3.58;;;17.70;99.90;;;;;;5144219;27;20015;-71
2023/07/19 00:05:33;;;;;;;5.00;3.30;;;17.70;99.90;;;;;;5137531;27;20030;-70
2023/07/19 00:08:00;;;;;;;9.55;4.00;;;17.70;99.90;;;;;;5137427;27;20023;-70
2023/07/19 00:10:25;;;;;;;10.13;4.07;;;17.70;99.90;;;;;;5155971;27;20030;-71
2023/07/19 00:12:51;;;;;;;6.47;3.78;;;17.70;99.90;;;;;;5155657;27;20388;-71
2023/07/19 00:15:17;;;;;;;7.10;3.80;;;17.70;99.90;;;;;;5155725;27;20105;-71
2023/07/19 00:17:44;;;;;;;7.68;4.32;;;17.70;99.90;;;;;;5155637;27;20548;-71
2023/07/19 00:20:11;;;;;;;9.13;4.10;;;17.70;99.90;;;;;;5137497;27;20515;-71
2023/07/19 00:22:37;;;;;;;8.65;4.20;;;17.50;99.90;;;;;;5155519;27;20099;-71
2023/07/19 00:25:03;;;;;;;12.48;4.40;;;17.50;99.90;;;;;;5141241;27;20380;-71
2023/07/19 00:27:29;;;;;;;9.57;4.47;;;17.50;99.90;;;;;;5134735;27;20050;-71
2023/07/19 00:29:54;;;;;;;10.80;4.32;;;17.50;99.90;;;;;;5134590;27;20124;-71
2023/07/19 00:32:20;;;;;;;10.15;5.00;;;17.40;99.90;;;;;;5116147;27;20035;-71
2023/07/19 00:34:46;;;;;;;10.10;4.00;;;17.40;99.90;;;;;;5134226;27;20449;-71
2023/07/19 00:37:11;;;;;;;8.20;4.43;;;17.40;99.90;;;;;;5134876;27;20100;-71
2023/07/19 00:39:37;;;;;;;9.80;4.10;;;17.40;99.90;;;;;;5134552;27;20027;-71
2023/07/19 00:42:03;;;;;;;8.38;4.03;;;17.50;99.90;;;;;;5134427;27;20062;-70
2023/07/19 00:44:29;;;;;;;7.28;4.00;;;17.60;99.90;;;;;;5135237;27;20027;-70
2023/07/19 00:46:55;;;;;;;6.90;4.07;;;17.50;99.90;;;;;;5134412;27;20102;-71
2023/07/19 00:49:21;;;;;;;9.15;4.28;;;17.40;99.90;;;;;;5134124;27;20066;-70
2023/07/19 00:51:47;;;;;;;9.57;4.75;;;17.40;99.90;;;;;;5134589;27;20086;-70
2023/07/19 00:54:13;;;;;;;11.10;4.47;;;17.40;99.90;;;;;;5134577;27;20027;-70
2023/07/19 00:56:42;;;;;;;9.38;4.00;;;17.30;99.90;;;;;;5134351;27;20031;-70
2023/07/19 00:59:07;;;;;;;7.50;4.10;;;17.30;99.90;;;;;;5134271;27;20019;-70
2023/07/19 01:01:34;;;;;;;9.70;4.05;;;17.20;99.90;;;;;;5134129;27;20049;-70
2023/07/19 01:04:00;;;;;;;9.35;4.30;;;17.20;99.90;;;;;;5134592;28;20037;-70
2023/07/19 01:06:26;;;;;;;9.25;4.07;;;17.30;99.90;;;;;;5134278;28;20477;-70
2023/07/19 01:08:52;;;;;;;8.95;4.20;;;17.30;99.90;;;;;;5134225;28;20062;-71
2023/07/19 01:11:17;;;;;;;7.30;4.47;;;17.30;99.90;;;;;;5134639;28;20023;-71
2023/07/19 01:13:53;;;;;;;8.32;4.13;;;17.30;99.90;;;;;;5134151;28;20473;-70
2023/07/19 01:16:19;;;;;;;8.13;4.00;;;17.30;99.90;;;;;;5115791;28;20481;-70
2023/07/19 01:18:46;;;;;;;5.38;3.40;;;17.30;99.90;;;;;;5134065;28;20389;-70
2023/07/19 01:21:12;;;;;;;8.05;3.83;;;17.30;99.90;;;;;;5134361;28;20077;-70
2023/07/19 01:23:38;;;;;;;7.03;4.07;;;17.30;99.90;;;;;;5134024;28;20508;-70
2023/07/19 01:26:04;;;;;;;8.90;4.38;;;17.40;99.90;;;;;;5134074;28;20504;-70
2023/07/19 01:28:30;;;;;;;9.57;4.68;;;17.40;99.90;;;;;;5134013;28;20031;-70
2023/07/19 01:30:55;;;;;;;9.23;4.40;;;17.40;99.90;;;;;;5133993;28;20585;-70
2023/07/19 01:33:21;;;;;;;7.78;4.20;;;17.40;99.90;;;;;;5133859;28;20043;-70
2023/07/19 01:35:47;;;;;;;10.88;5.10;;;17.40;99.90;;;;;;5134018;28;20038;-70
2023/07/19 01:38:12;;;;;;;10.18;5.47;;;17.30;99.90;;;;;;5133935;28;20480;-70
2023/07/19 01:40:38;;;;;;;10.30;5.65;;;17.30;99.90;;;;;;5133966;28;20472;-70
2023/07/19 01:43:04;;;;;;;8.68;5.03;;;17.20;99.90;;;;;;5134639;28;20043;-70
2023/07/19 01:45:29;;;;;;;8.25;4.60;;;17.10;99.90;;;;;;5115904;28;20019;-70
2023/07/19 01:47:55;;;;;;;9.52;4.57;;;17.10;99.90;;;;;;5135932;27;20115;-70
2023/07/19 01:50:21;;;;;;;6.82;3.47;;;17.20;99.90;;;;;;5119426;27;20023;-70
2023/07/19 01:52:46;;;;;;;7.93;3.80;;;17.20;99.90;;;;;;5137749;27;20051;-70
2023/07/19 01:55:13;;;;;;;8.48;3.75;;;17.20;99.90;;;;;;5137713;27;20472;-70
2023/07/19 01:57:38;;;;;;;6.72;4.10;;;17.20;99.90;;;;;;5119108;27;20027;-70
2023/07/19 02:00:04;;;;;;;9.10;4.18;;;17.30;99.90;;;;;;5137379;27;20034;-70
2023/07/19 02:02:30;;;;;;;9.57;5.07;;;17.30;99.90;;;;;;5137524;27;20419;-71
2023/07/19 02:04:56;;;;;;;9.45;4.20;;;17.30;99.90;;;;;;5119857;27;20023;-71
2023/07/19 02:07:21;;;;;;;8.05;4.43;;;17.10;99.90;;;;;;5137580;27;20101;-71
2023/07/19 02:09:47;;;;;;;12.13;4.47;;;17.10;99.90;;;;;;5119158;27;20023;-71
2023/07/19 02:12:13;;;;;;;8.45;4.47;;;17.00;99.90;;;;;;5136834;27;20867;-70
2023/07/19 02:14:39;;;;;;;12.48;5.68;;;17.00;99.90;;;;;;5156585;27;20480;-70
2023/07/19 02:17:05;;;;;;;10.70;4.10;;;17.00;99.90;;;;;;5158334;27;20075;-70
2023/07/19 02:19:31;;;;;;;11.63;4.25;;;17.00;99.90;;;;;;5158240;27;20445;-70
2023/07/19 02:21:56;;;;;;;9.57;4.20;;;16.90;99.90;;;;;;5138381;27;20076;-70
2023/07/19 02:24:22;;;;;;;8.25;3.63;;;16.90;99.90;;;;;;5137136;27;20019;-70
2023/07/19 02:26:47;;;;;;;8.48;3.60;;;16.90;99.90;;;;;;5137104;27;20027;-70
2023/07/19 02:29:13;;;;;;;6.72;3.70;;;16.90;99.90;;;;;;5137090;27;20023;-70
2023/07/19 02:31:39;;;;;;;8.68;3.72;;;17.00;99.90;;;;;;5136942;27;20024;-70
2023/07/19 02:34:09;;;;;;;10.13;4.07;;;17.00;99.90;;;;;;5136976;27;20023;-70
2023/07/19 02:36:35;;;;;;;9.25;4.28;;;17.10;99.90;;;;;;5136880;27;20115;-70
2023/07/19 02:39:02;;;;;;;10.48;4.03;;;17.10;99.90;;;;;;5118620;27;20106;-70
2023/07/19 02:41:29;;;;;;;6.72;3.33;;;17.10;99.90;;;;;;5137306;27;20027;-70
2023/07/19 02:43:55;;;;;;;9.55;3.97;;;17.10;99.90;;;;;;5136792;27;20500;-70
2023/07/19 02:46:20;;;;;;;8.85;3.80;;;17.20;99.90;;;;;;5137250;27;20056;-70
2023/07/19 02:48:46;;;;;;;8.20;4.30;;;17.10;99.90;;;;;;5136718;27;20027;-70
2023/07/19 02:51:12;;;;;;;9.43;4.63;;;17.10;99.90;;;;;;5136912;27;20027;-70
2023/07/19 02:53:38;;;;;;;10.50;4.25;;;17.00;99.90;;;;;;5136549;27;20031;-70
2023/07/19 02:56:04;;;;;;;7.65;4.88;;;16.90;99.90;;;;;;5136531;27;20481;-70
2023/07/19 02:58:30;;;;;;;14.10;4.88;;;16.90;99.90;;;;;;5136297;27;20069;-70
2023/07/19 03:00:56;;;;;;;13.40;4.97;;;16.70;99.90;;;;;;5136648;27;20050;-70
2023/07/19 03:03:22;;;;;;;9.02;4.80;;;16.70;99.90;;;;;;5136271;27;20106;-70
2023/07/19 03:05:47;;;;;;;11.10;5.00;;;16.60;99.90;;;;;;5136674;27;20076;-70
2023/07/19 03:08:13;;;;;;;10.13;4.63;;;16.60;99.90;;;;;;5136651;27;20023;-70
2023/07/19 03:10:39;;;;;;;10.18;4.60;;;16.60;99.90;;;;;;5136659;27;20034;-70
2023/07/19 03:13:05;;;;;;;8.98;4.72;;;16.60;99.90;;;;;;5136167;27;20385;-71
2023/07/19 03:15:34;;;;;;;9.57;3.80;;;16.60;99.90;;;;;;5136220;27;20023;-70
2023/07/19 03:18:01;;;;;;;9.57;4.18;;;16.70;99.90;;;;;;5136169;27;20106;-70
2023/07/19 03:20:27;;;;;;;9.82;4.95;;;16.70;99.90;;;;;;5136001;27;20031;-70
2023/07/19 03:22:54;;;;;;;11.80;4.50;;;16.70;99.90;;;;;;5100703;27;20027;-70
2023/07/19 03:25:19;;;;;;;6.65;4.20;;;16.70;99.90;;;;;;5117669;27;20023;-70
2023/07/19 03:27:45;;;;;;;10.13;4.28;;;16.70;99.90;;;;;;5135930;27;20023;-70
2023/07/19 03:30:11;;;;;;;9.55;4.63;;;16.70;99.90;;;;;;5135869;27;20443;-70
2023/07/19 03:32:37;;;;;;;10.52;4.60;;;16.70;99.90;;;;;;5136017;27;20106;-70
2023/07/19 03:35:04;;;;;;;8.20;4.03;;;16.70;99.90;;;;;;5135739;27;20051;-70
2023/07/19 03:37:30;;;;;;;12.43;4.53;;;16.80;99.90;;;;;;5135887;27;20102;-70
2023/07/19 03:39:55;;;;;;;11.27;4.40;;;16.90;99.90;;;;;;5135621;27;20058;-70
2023/07/19 03:42:21;;;;;;;10.00;4.45;;;16.90;99.90;;;;;;5136035;27;20168;-70
2023/07/19 03:44:46;;;;;;;11.20;5.40;;;16.90;99.90;;;;;;5135561;27;20023;-70
2023/07/19 03:47:12;;;;;;;10.80;4.57;;;16.90;99.90;;;;;;5117061;27;20035;-70
2023/07/19 03:49:38;;;;;;;9.18;4.53;;;16.90;99.90;;;;;;5135306;27;20058;-71
2023/07/19 03:52:04;;;;;;;10.73;4.35;;;16.90;99.90;;;;;;5135108;27;20050;-71
2023/07/19 03:54:29;;;;;;;11.27;4.47;;;16.90;99.90;;;;;;5116710;27;20485;-70
2023/07/19 03:56:55;;;;;;;12.57;4.38;;;16.90;99.90;;;;;;5135741;27;20031;-70
2023/07/19 03:59:21;;;;;;;10.43;4.35;;;16.90;99.90;;;;;;5135304;27;20031;-70
2023/07/19 04:01:47;;;;;;;9.63;5.30;;;16.90;99.90;;;;;;5135154;27;20118;-70
2023/07/19 04:04:12;;;;;;;9.02;4.13;;;17.00;99.90;;;;;;5135157;27;20106;-70
2023/07/19 04:06:38;;;;;;;12.10;4.00;;;17.00;99.90;;;;;;5135906;27;20026;-70
2023/07/19 04:09:04;;;;;;;8.35;4.10;;;17.00;99.90;;;;;;5135056;27;20026;-71
2023/07/19 04:11:30;;;;;;;9.15;4.47;;;17.00;99.90;;;;;;5136498;27;20023;-71
2023/07/19 04:13:55;;;;;;;12.43;5.22;;;17.10;99.90;;;;;;5134325;27;20023;-71
2023/07/19 04:16:21;;;;;;;8.82;3.92;;;17.00;99.90;;;;;;5133389;27;20477;-71
2023/07/19 04:18:47;;;;;;;9.48;4.70;;;17.00;99.90;;;;;;5134257;27;20429;-71
2023/07/19 04:21:12;;;;;;;10.02;4.32;;;17.00;99.90;;;;;;5134097;27;20496;-71
2023/07/19 04:23:38;;;;;;;8.82;4.28;;;17.00;99.90;;;;;;5134263;27;20106;-71
2023/07/19 04:26:05;;;;;;;10.07;4.53;;;17.00;99.90;;;;;;5116081;27;20023;-70
2023/07/19 04:28:31;;;;;;;11.82;4.95;;;17.00;99.90;;;;;;5134800;27;20019;-70
2023/07/19 04:30:57;;;;;;;10.18;4.90;;;17.00;99.90;;;;;;5134791;27;20027;-70
2023/07/19 04:33:22;;;;;;;14.30;5.85;;;17.00;99.90;;;;;;5134617;27;20104;-70
2023/07/19 04:35:49;;;;;;;10.05;5.75;;;16.90;99.90;;;;;;5134692;27;20031;-70
2023/07/19 04:38:15;;;;;;;10.63;4.85;;;16.90;99.90;;;;;;5134602;27;20033;-71
2023/07/19 04:40:41;;;;;;;9.50;4.40;;;16.80;99.90;;;;;;5116139;27;20031;-71
2023/07/19 04:43:07;;;;;;;12.15;4.68;;;16.80;99.90;;;;;;5134471;27;20049;-71
2023/07/19 04:45:32;;;;;;;10.77;4.15;;;16.80;99.90;;;;;;5116183;27;20027;-71
2023/07/19 04:47:58;;;;;;;7.45;4.25;;;16.80;99.90;;;;;;5134368;27;20024;-70
2023/07/19 04:50:24;;;;;;;9.88;4.25;;;16.80;99.90;;;;;;5134810;27;20084;-70
2023/07/19 04:52:51;;;;;;;11.25;4.15;;;16.80;99.90;;;;;;5134460;27;20106;-70
2023/07/19 04:55:16;;;;;;;7.82;3.58;;;16.80;99.90;;;;;;5134384;27;20552;-70
2023/07/19 04:57:42;;;;;;;8.02;3.63;;;16.90;99.90;;;;;;5134354;27;20057;-70
2023/07/19 05:00:11;;;;;;;8.90;4.50;;;16.90;99.90;;;;;;5134237;27;20027;-71
2023/07/19 05:02:43;;;;;;;11.02;4.43;;;16.90;99.90;;;;;;5115851;28;20035;-71
2023/07/19 05:05:09;;;;;;;11.88;5.43;;;16.90;99.90;;;;;;5134118;28;20027;-71
2023/07/19 05:07:38;;;;;;;8.82;4.80;;;17.00;99.90;;;;;;5116155;28;20114;-71
2023/07/19 05:10:05;;;;;;;13.05;4.30;;;16.90;99.90;;;;;;5134220;28;20027;-70
2023/07/19 05:12:31;;;;;;;13.27;4.55;;;16.90;99.90;;;;;;5134142;28;20057;-76
2023/07/19 05:14:57;;;;;;;10.07;4.55;;;16.90;99.90;;;;;;5134142;28;20110;-71
2023/07/19 05:17:23;;;;;;;9.88;4.68;;;17.00;99.90;;;;;;5134517;28;20035;-71
2023/07/19 05:19:49;;;;;;;7.65;4.03;;;17.00;99.90;;;;;;5134340;28;20504;-71
2023/07/19 05:22:15;;;;;;;8.90;4.20;;;17.00;99.90;;;;;;5136704;27;20085;-71
2023/07/19 05:24:40;;;;;;;9.75;4.43;;;17.10;99.90;;;;;;5138416;27;20515;-71
2023/07/19 05:27:06;;;;;;;10.15;4.63;;;17.10;99.90;;;;;;5138286;27;20468;-71
2023/07/19 05:29:33;;;;;;;11.13;4.60;;;17.20;99.90;;;;;;5138930;27;20054;-71
2023/07/19 05:31:59;;;;;;;13.05;5.20;;;17.20;99.90;;;;;;5138552;27;20051;-71
2023/07/19 05:34:25;;;;;;;10.95;4.55;;;17.20;99.90;;;;;;5137816;27;20027;-70
2023/07/19 05:36:50;;;;;;;12.20;4.82;;;17.30;99.90;;;;;;5138166;27;20037;-70
2023/07/19 05:39:16;;;;;;;8.95;4.50;;;17.20;99.90;;;;;;5137819;27;20031;-70
2023/07/19 05:41:41;;;;;;;9.85;4.00;;;17.20;99.90;;;;;;5137475;27;20023;-71
2023/07/19 05:44:07;;;;;;;11.77;5.20;;;17.30;99.90;;;;;;5138256;27;20507;-70
2023/07/19 05:46:36;;;;;;;11.63;5.40;;;17.30;99.90;;;;;;5116189;28;20024;-74
2023/07/19 05:49:03;;;;;;;10.73;4.75;;;17.30;99.90;;;;;;5120906;27;20043;-70
2023/07/19 05:51:29;;;;;;;10.23;4.35;;;17.30;99.90;;;;;;5118580;27;20072;-71
2023/07/19 05:53:54;;;;;;;10.65;5.03;;;17.30;99.90;;;;;;5135836;27;20059;-72
2023/07/19 05:56:21;;;;;;;10.05;4.50;;;17.30;99.90;;;;;;5136949;27;20023;-70
2023/07/19 05:58:47;;;;;;;9.32;4.47;;;17.20;99.90;;;;;;5138172;27;20115;-71
2023/07/19 06:01:17;;;;;;;12.05;4.95;;;17.20;99.90;;;;;;5136307;27;20081;-71
2023/07/19 06:03:44;;;;;;;15.13;5.60;;;17.20;99.90;;;;;;5137631;27;20152;-71
2023/07/19 06:06:09;;;;;;;15.75;5.63;;;17.10;99.90;;;;;;5137551;27;20034;-71
2023/07/19 06:08:36;;;;;;;10.98;4.80;;;17.10;99.90;;;;;;5137754;27;20469;-72
2023/07/19 06:11:02;;;;;;;11.95;5.40;;;17.10;99.90;;;;;;5137758;27;20050;-72
2023/07/19 06:13:28;;;;;;;12.52;5.70;;;17.10;99.90;;;;;;5119133;27;20076;-72
2023/07/19 06:15:54;;;;;;;12.85;5.97;;;17.10;99.90;;;;;;5148837;27;20434;-72
2023/07/19 06:18:19;;;;;;;13.48;4.10;;;17.10;99.90;;;;;;5158058;27;20421;-71
2023/07/19 06:20:45;;;;;;;8.52;3.97;;;17.10;99.90;;;;;;5158212;27;20025;-71
2023/07/19 06:23:11;;;;;;;9.30;3.80;;;17.10;99.90;;;;;;5139373;27;20027;-71
2023/07/19 06:25:37;;;;;;;9.32;3.75;;;17.10;99.90;;;;;;5157941;27;20585;-71
2023/07/19 06:28:03;;;;;;;7.97;3.35;;;17.20;99.90;;;;;;5157864;27;20034;-71
2023/07/19 06:30:28;;;;;;;7.82;3.50;;;17.20;99.90;;;;;;5158369;27;20026;-71
2023/07/19 06:32:54;;;;;;;9.60;4.13;;;17.20;99.90;;;;;;5157458;27;20031;-71
2023/07/19 06:35:20;;;;;;;9.93;3.90;;;17.20;99.90;;;;;;5155146;27;20022;-71
2023/07/19 06:37:45;;;;;;;6.63;3.50;;;17.30;99.90;;;;;;5136271;27;20027;-71
2023/07/19 06:40:11;;;;;;;10.43;3.45;;;17.30;99.90;;;;;;5136852;27;20114;-71
2023/07/19 06:42:37;;;;;;;6.97;3.25;;;17.30;99.90;;;;;;5136145;27;20498;-71
2023/07/19 06:45:03;;;;;;;4.97;3.00;;;17.40;99.90;;;;;;5137252;27;20085;-71
2023/07/19 06:47:29;;;;;;;7.22;4.07;;;17.40;99.90;;;;;;5136573;27;20027;-71
2023/07/19 06:49:57;;;;;;;7.40;3.53;;;17.40;99.90;;;;;;5119062;27;20134;-70
2023/07/19 06:52:23;;;;;;;6.20;3.63;;;17.50;99.90;;;;;;5136861;27;20031;-71
2023/07/19 06:54:49;;;;;;;9.35;3.53;;;17.50;99.90;;;;;;5136646;27;20019;-71
2023/07/19 06:57:15;;;;;;;7.35;3.17;;;17.60;99.90;;;;;;5136826;27;20088;-71
2023/07/19 06:59:40;;;;;;;8.48;3.88;;;17.70;99.90;;;;;;5136438;27;20074;-70
2023/07/19 07:02:06;;;;;;;8.57;3.88;;;17.80;99.90;;;;;;5136592;27;20023;-71
2023/07/19 07:04:32;;;;;;;11.02;4.22;;;18.00;99.90;;;;;;5136427;27;20031;-71
2023/07/19 07:06:57;;;;;;;14.57;4.57;;;18.10;99.90;;;;;;5136350;27;20473;-71
2023/07/19 07:09:23;;;;;;;7.57;3.80;;;18.20;99.90;;;;;;5134685;27;20030;-71
2023/07/19 07:11:49;;;;;;;10.02;4.68;;;18.20;99.90;;;;;;5117861;27;20389;-71
2023/07/19 07:14:15;;;;;;;12.30;3.97;;;18.20;99.90;;;;;;5116486;27;20027;-71
2023/07/19 07:16:41;;;;;;;8.23;3.97;;;18.10;99.90;;;;;;5136212;27;20076;-71
2023/07/19 07:19:06;;;;;;;12.25;4.20;;;18.00;99.90;;;;;;5135846;27;20450;-71
2023/07/19 07:21:33;;;;;;;11.18;4.25;;;17.90;99.90;;;;;;5114752;28;20477;-71
2023/07/19 07:23:59;;;;;;;9.23;3.90;;;17.90;99.90;;;;;;5112681;27;20026;-71
2023/07/19 07:26:25;;;;;;;12.75;4.35;;;18.00;99.90;;;;;;5135971;27;20047;-70
2023/07/19 07:28:51;;;;;;;10.93;3.72;;;18.00;99.90;;;;;;5136549;27;20019;-71
2023/07/19 07:31:17;;;;;;;9.98;3.58;;;18.10;99.90;;;;;;5135887;27;20553;-71
2023/07/19 07:33:42;;;;;;;8.10;3.42;;;18.10;99.90;;;;;;5135799;27;20061;-70
2023/07/19 07:36:08;;;;;;;11.63;4.45;;;18.20;99.90;;;;;;5136066;27;20059;-71
2023/07/19 07:38:34;;;;;;;9.25;4.22;;;18.30;99.90;;;;;;5135790;27;20046;-70
2023/07/19 07:41:01;;;;;;;15.43;4.65;;;18.40;99.90;;;;;;5135714;27;20039;-70
2023/07/19 07:43:28;;;;;;;8.00;3.63;;;18.50;99.90;;;;;;5135668;27;20041;-70
2023/07/19 07:45:55;;;;;;;7.38;3.40;;;18.50;99.90;;;;;;5134871;27;20072;-71
2023/07/19 07:48:22;;;;;;;10.52;3.85;;;18.40;99.90;;;;;;5135412;27;20130;-71
2023/07/19 07:50:52;;;;;;;10.80;4.70;;;18.40;99.90;;;;;;5100931;27;20023;-70
2023/07/19 07:53:18;;;;;;;8.30;3.80;;;18.30;99.90;;;;;;5135734;27;20477;-71
2023/07/19 07:55:44;;;;;;;10.85;3.97;;;18.30;99.90;;;;;;5135738;27;20088;-70
2023/07/19 07:58:10;;;;;;;8.55;3.45;;;18.30;99.90;;;;;;5135416;27;20536;-71
2023/07/19 08:00:37;;;;;;;7.47;3.03;;;18.30;99.90;;;;;;5116780;27;20027;-71
2023/07/19 08:03:03;;;;;;;7.22;3.75;;;18.30;99.90;;;;;;5135210;27;20095;-71
2023/07/19 08:05:29;;;;;;;8.48;4.43;;;18.30;99.90;;;;;;5135500;27;20068;-71
2023/07/19 08:07:55;;;;;;;8.68;4.43;;;18.40;99.90;;;;;;5135074;27;20039;-71
2023/07/19 08:10:20;;;;;;;8.15;4.60;;;18.60;99.90;;;;;;5135451;27;20072;-71
2023/07/19 08:12:47;;;;;;;11.95;4.93;;;18.80;99.90;;;;;;5135559;27;20110;-71
2023/07/19 08:15:12;;;;;;;12.00;4.20;;;18.90;99.90;;;;;;5135273;27;20485;-71
2023/07/19 08:17:45;;;;;;;7.78;4.35;;;19.00;99.90;;;;;;5071675;28;20383;-69
2023/07/19 08:20:11;;;;;;;9.38;4.57;;;19.00;99.90;;;;;;5071028;28;20025;-69
2023/07/19 08:22:38;;;;;;;12.00;4.93;;;19.00;99.90;;;;;;5070905;28;20082;-69
2023/07/19 08:25:05;;;;;;;13.75;5.15;;;19.10;99.90;;;;;;5070632;28;20021;-69
2023/07/19 08:27:32;;;;;;;13.23;5.57;;;19.10;99.90;;;;;;5070551;28;20025;-69
2023/07/19 08:29:59;;;;;;;11.55;5.18;;;19.30;99.90;;;;;;5070804;28;20400;-69
2023/07/19 08:32:25;;;;;;;8.77;4.15;;;19.50;99.90;;;;;;5070762;28;20028;-69
2023/07/19 08:34:51;;;;;;;14.32;4.85;;;19.60;99.90;;;;;;5070458;28;20439;-73
2023/07/19 08:37:16;;;;;;;11.00;5.15;;;19.70;99.90;;;;;;5070650;28;20029;-69
2023/07/19 08:39:42;;;;;;;8.63;4.30;;;19.60;99.90;;;;;;5070930;28;20354;-69
2023/07/19 08:42:08;;;;;;;13.45;5.40;;;19.50;99.90;;;;;;5070199;28;20028;-69
2023/07/19 08:44:33;;;;;;;8.02;4.75;;;19.40;99.90;;;;;;5070223;28;20029;-70
2023/07/19 08:47:01;;;;;;;13.48;5.45;;;19.30;99.90;;;;;;5069354;28;20504;-70
2023/07/19 08:49:27;;;;;;;8.50;4.18;;;19.30;99.90;;;;;;5070229;28;20098;-70
2023/07/19 08:51:53;;;;;;;10.40;4.65;;;19.30;99.90;;;;;;5070127;28;20072;-69
2023/07/19 08:54:18;;;;;;;8.00;3.70;;;19.30;99.90;;;;;;5070434;28;20029;-69
2023/07/19 08:56:44;;;;;;;10.10;3.95;;;19.30;99.90;;;;;;5069963;28;20029;-69
2023/07/19 08:59:11;;;;;;;8.60;3.88;;;19.50;99.90;;;;;;5070241;28;20098;-69
2023/07/19 09:01:37;;;;;;;9.43;4.72;;;19.70;99.90;;;;;;5069988;28;20060;-69
2023/07/19 09:04:11;;;;;;;10.38;4.13;;;20.00;99.90;;;;;;5069949;28;20052;-69
2023/07/19 09:06:41;;;;;;;9.15;5.25;;;20.20;99.90;;;;;;5068610;28;20481;-69
2023/07/19 09:09:09;;;;;;;11.87;4.20;;;20.50;99.90;;;;;;5069800;28;20029;-70
2023/07/19 09:11:35;;;;;;;10.57;4.65;;;20.60;99.90;;;;;;5070197;28;20144;-69
2023/07/19 09:14:00;;;;;;;9.23;4.40;;;20.70;99.90;;;;;;5067757;28;20489;-69
2023/07/19 09:16:33;;;;;;;11.95;4.85;;;20.80;99.90;;;;;;5049614;28;20029;-70
2023/07/19 09:19:00;;;;;;;10.10;4.32;;;20.80;99.90;;;;;;5049881;28;20381;-69
2023/07/19 09:21:33;;;;;;;10.32;4.70;;;20.90;99.90;;;;;;5056450;28;20025;-69
2023/07/19 09:24:04;;;;;;;10.85;5.03;;;20.90;99.90;;;;;;5069010;28;20013;-69
2023/07/19 09:26:52;;;;;;;7.93;4.35;;;20.90;99.90;;;;;;5069326;28;20058;-69
2023/07/19 09:29:22;;;;;;;14.88;5.43;;;20.90;99.90;;;;;;5055690;28;20033;-70
2023/07/19 09:31:58;;;;;;;10.23;4.73;;;21.00;99.90;;;;;;5056945;28;20032;-69
2023/07/19 09:34:27;;;;;;;14.40;6.45;;;20.90;99.90;;;;;;5055993;28;20481;-69
2023/07/19 09:36:53;;;;;;;12.50;6.22;;;20.90;99.90;;;;;;5055921;28;20032;-69
2023/07/19 09:39:20;;;;;;;11.88;5.00;;;20.80;99.90;;;;;;5055947;28;20053;-69
2023/07/19 09:41:46;;;;;;;10.00;4.40;;;20.70;99.90;;;;;;5055960;28;20462;-69
2023/07/19 09:44:15;;;;;;;9.77;4.20;;;20.60;99.90;;;;;;5056029;28;20488;-69
2023/07/19 09:46:43;;;;;;;10.68;4.30;;;20.60;99.90;;;;;;5055806;28;20017;-69
2023/07/19 09:49:09;;;;;;;11.27;4.68;;;20.70;99.90;;;;;;5055553;28;20381;-70
2023/07/19 09:51:36;;;;;;;8.00;4.00;;;20.70;99.90;;;;;;5056288;28;20113;-69
2023/07/19 09:54:10;;;;;;;8.70;3.90;;;20.70;99.90;;;;;;5056194;28;20393;-70
2023/07/19 09:56:38;;;;;;;14.23;4.85;;;20.90;99.90;;;;;;5056531;28;20508;-70
2023/07/19 09:59:08;;;;;;;10.63;4.47;;;21.10;99.90;;;;;;5054331;28;20021;-70
2023/07/19 10:01:35;;;;;;;8.18;4.35;;;21.30;99.90;;;;;;5055729;28;20025;-70
2023/07/19 10:04:01;;;;;;;16.92;6.25;;;21.60;99.90;;;;;;5055330;28;20021;-70
2023/07/19 10:06:30;;;;;;;10.60;4.30;;;21.70;99.90;;;;;;5055268;28;20378;-70
2023/07/19 10:09:36;;;;;;;7.82;4.18;;;21.70;99.90;;;;;;5055280;28;20021;-70
2023/07/19 10:12:06;;;;;;;11.10;4.95;;;21.70;99.90;;;;;;5053056;28;20033;-68
2023/07/19 10:14:33;;;;;;;10.82;4.75;;;21.70;99.90;;;;;;5035703;28;20516;-68
2023/07/19 10:17:00;;;;;;;9.15;4.50;;;21.60;99.90;;;;;;5054513;28;20084;-68
2023/07/19 10:19:26;;;;;;;12.07;4.95;;;21.50;99.90;;;;;;5055302;28;20025;-68
2023/07/19 10:22:07;;;;;;;8.35;4.55;;;21.40;99.90;;;;;;5055481;28;20036;-68
2023/07/19 10:24:37;;;;;;;7.07;4.15;;;21.30;99.90;;;;;;5055697;28;20433;-68
2023/07/19 10:27:05;;;;;;;8.00;3.60;;;21.20;99.90;;;;;;5055593;28;20032;-68
2023/07/19 10:30:04;;;;;;;8.18;4.13;;;21.20;99.90;;;;;;5042342;28;20021;-68
2023/07/19 10:32:29;;;;;;;8.85;3.92;;;21.00;99.90;;;;;;5034827;28;20042;-68
2023/07/19 10:34:56;;;;;;;10.00;4.43;;;21.00;99.90;;;;;;5035587;28;20025;-68
2023/07/19 10:37:22;;;;;;;7.45;3.97;;;20.90;99.90;;;;;;5040918;28;20017;-68
2023/07/19 10:39:48;;;;;;;7.63;4.05;;;20.90;99.90;;;;;;5053940;28;20436;-68
2023/07/19 10:42:14;;;;;;;8.65;3.50;;;20.90;99.90;;;;;;5054929;28;20021;-68
2023/07/19 10:44:40;;;;;;;8.70;4.28;;;21.00;99.90;;;;;;5055106;28;20036;-68
2023/07/19 10:47:06;;;;;;;8.32;3.80;;;21.10;99.90;;;;;;5054732;28;20086;-68
2023/07/19 10:49:32;;;;;;;8.20;3.80;;;21.20;99.90;;;;;;5053507;28;20440;-70
2023/07/19 10:51:58;;;;;;;13.48;4.55;;;21.30;99.90;;;;;;5054621;28;20140;-68
2023/07/19 10:54:25;;;;;;;13.45;4.35;;;21.60;99.90;;;;;;5054553;28;20029;-68
2023/07/19 10:56:53;;;;;;;10.18;4.22;;;21.80;99.90;;;;;;5053117;28;20032;-69
2023/07/19 10:59:20;;;;;;;7.57;4.13;;;22.00;99.90;;;;;;5054421;28;20370;-68
2023/07/19 11:01:49;;;;;;;8.55;4.55;;;22.10;99.90;;;;;;5054365;28;20017;-68
2023/07/19 11:04:18;;;;;;;8.02;3.90;;;22.30;99.90;;;;;;5054350;28;20021;-69
2023/07/19 11:06:59;;;;;;;9.75;4.45;;;22.50;99.90;;;;;;5054607;28;20031;-69
2023/07/19 11:09:25;;;;;;;8.70;3.80;;;22.60;99.90;;;;;;5054136;28;20051;-68
2023/07/19 11:11:52;;;;;;;10.38;4.28;;;22.70;99.90;;;;;;5052992;28;20450;-68
2023/07/19 11:14:28;;;;;;;8.80;4.00;;;22.80;99.90;;;;;;5054243;28;20048;-69
2023/07/19 11:16:57;;;;;;;7.70;4.32;;;22.90;99.90;;;;;;5053828;28;20029;-69
2023/07/19 11:19:37;;;;;;;7.65;4.07;;;23.00;99.90;;;;;;5054048;28;20033;-68
2023/07/19 11:22:04;;;;;;;8.13;4.20;;;23.20;99.90;;;;;;5054071;28;20025;-68
2023/07/19 11:24:41;;;;;;;10.15;4.60;;;23.30;99.90;;;;;;5053952;28;20054;-69
2023/07/19 11:27:08;;;;;;;6.85;3.90;;;23.50;99.90;;;;;;5052813;28;20033;-68
2023/07/19 11:29:35;;;;;;;8.18;4.20;;;23.70;99.90;;;;;;5053870;28;20047;-69
2023/07/19 11:32:20;;;;;;;7.50;4.63;;;23.90;99.90;;;;;;5054278;28;20040;-68
2023/07/19 11:34:47;;;;;;;8.88;4.20;;;24.00;99.90;;;;;;5053714;28;20025;-68
2023/07/19 11:37:33;;;;;;;8.27;3.92;;;24.10;99.90;;;;;;5053576;28;20035;-68
2023/07/19 11:40:07;;;;;;;9.75;4.53;;;24.20;99.90;;;;;;5053708;28;20021;-69
2023/07/19 11:42:48;;;;;;;11.05;4.50;;;24.40;99.90;;;;;;5053822;28;20044;-69
2023/07/19 11:45:18;;;;;;;8.38;4.53;;;24.50;99.90;;;;;;5053644;28;20023;-69
2023/07/19 11:47:46;;;;;;;9.53;4.77;;;24.60;99.90;;;;;;5053642;28;20021;-69
2023/07/19 11:50:12;;;;;;;9.30;4.28;;;24.80;99.90;;;;;;5052046;28;20440;-69
2023/07/19 11:52:43;;;;;;;8.65;4.47;;;24.90;99.90;;;;;;5053470;28;20108;-69
2023/07/19 11:55:13;;;;;;;8.10;4.32;;;25.00;99.90;;;;;;5053657;28;20033;-69
2023/07/19 11:57:40;;;;;;;7.47;4.35;;;25.10;99.90;;;;;;5053369;28;20039;-69
2023/07/19 12:00:07;;;;;;;8.43;4.45;;;25.30;99.90;;;;;;5053397;28;20039;-69
2023/07/19 12:02:34;;;;;;;8.68;4.72;;;25.50;99.90;;;;;;5053319;28;20021;-68
2023/07/19 12:04:59;;;;;;;7.05;4.13;;;25.60;99.90;;;;;;5046290;28;20444;-68
2023/07/19 12:07:25;;;;;;;7.57;4.60;;;25.60;99.90;;;;;;5050819;28;20024;-68
2023/07/19 12:09:51;;;;;;;5.45;4.03;;;25.50;99.90;;;;;;5050114;28;20054;-68
2023/07/19 12:12:17;;;;;;;8.75;4.05;;;25.40;99.90;;;;;;5051399;28;20025;-68
2023/07/19 12:14:42;;;;;;;6.43;3.80;;;25.20;99.90;;;;;;5049553;28;20037;-68
2023/07/19 12:17:09;;;;;;;6.28;4.38;;;25.10;99.90;;;;;;5031840;28;20037;-68
2023/07/19 12:19:34;;;;;;;6.25;3.67;;;25.00;99.90;;;;;;5032883;28;20033;-68
2023/07/19 12:22:00;;;;;;;7.20;4.20;;;24.90;99.90;;;;;;5040204;28;20025;-68
2023/07/19 12:24:26;;;;;;;8.60;4.38;;;25.00;99.90;;;;;;5051954;28;20025;-68
2023/07/19 12:26:51;;;;;;;8.73;4.75;;;25.30;99.90;;;;;;5053384;28;20056;-69
2023/07/19 12:29:17;;;;;;;9.82;5.40;;;25.30;99.90;;;;;;5053045;28;20041;-69
2023/07/19 12:31:43;;;;;;;8.43;4.50;;;25.20;99.90;;;;;;5052563;28;20029;-68
2023/07/19 12:34:09;;;;;;;8.57;4.68;;;25.00;99.90;;;;;;5048464;28;20035;-69
2023/07/19 12:36:34;;;;;;;10.65;5.07;;;24.90;99.90;;;;;;5053003;28;20029;-69
2023/07/19 12:39:00;;;;;;;7.30;5.13;;;25.10;99.90;;;;;;5053057;28;20052;-69
2023/07/19 12:41:26;;;;;;;7.68;5.13;;;25.40;99.90;;;;;;5053225;28;20048;-69